createdAt,value
2022-12-08T00:02:11.789Z,0.09
2022-12-08T00:05:33.322Z,0.06
2022-12-08T00:08:54.500Z,0.03
2022-12-08T00:12:11.755Z,0.07
2022-12-08T00:15:14.489Z,0.20
2022-12-08T00:18:16.896Z,0.17
2022-12-08T00:21:19.727Z,0.18
2022-12-08T00:24:23.842Z,0.19
2022-12-08T00:27:26.699Z,0.20
2022-12-08T00:30:29.096Z,0.28
2022-12-08T00:33:31.770Z,0.22
2022-12-08T00:36:34.647Z,0.14
2022-12-08T00:39:37.360Z,0.09
2022-12-08T00:42:39.753Z,0.18
2022-12-08T00:45:43.585Z,0.21
2022-12-08T00:48:45.995Z,0.22
2022-12-08T00:51:48.847Z,0.24
2022-12-08T00:54:51.183Z,0.31
2022-12-08T00:57:54.011Z,0.30
2022-12-08T01:00:56.546Z,0.23
2022-12-08T01:04:03.784Z,0.26
2022-12-08T01:07:06.168Z,0.31
2022-12-08T01:10:09.312Z,0.33
2022-12-08T01:13:12.025Z,0.30
2022-12-08T01:16:44.318Z,0.36
2022-12-08T01:19:46.756Z,0.36
2022-12-08T01:22:49.466Z,0.36
2022-12-08T01:25:51.872Z,0.33
2022-12-08T01:28:54.699Z,0.34
2022-12-08T01:31:57.211Z,0.34
2022-12-08T01:34:59.885Z,0.36
2022-12-08T01:38:02.293Z,0.33
2022-12-08T01:41:05.062Z,0.37
2022-12-08T01:44:08.517Z,0.37
2022-12-08T01:47:12.016Z,0.30
2022-12-08T01:50:16.343Z,0.30
2022-12-08T01:53:24.067Z,0.24
2022-12-08T01:56:32.746Z,0.26
2022-12-08T01:59:42.067Z,0.28
2022-12-08T02:03:01.104Z,0.24
2022-12-08T02:06:04.561Z,0.24
2022-12-08T02:09:07.445Z,0.18
2022-12-08T02:12:10.535Z,0.11
2022-12-08T02:15:13.140Z,0.23
2022-12-08T02:18:31.452Z,0.21
2022-12-08T02:21:39.386Z,0.15
2022-12-08T02:24:45.118Z,0.24
2022-12-08T02:27:59.582Z,0.22
2022-12-08T02:31:36.477Z,0.17
2022-12-08T02:34:44.872Z,0.19
2022-12-08T02:37:55.133Z,0.20
2022-12-08T02:41:03.619Z,0.28
2022-12-08T02:44:49.884Z,0.28
2022-12-08T02:47:52.951Z,0.22
2022-12-08T02:50:55.814Z,0.25
2022-12-08T02:53:58.420Z,0.21
2022-12-08T02:57:14.080Z,0.24
2022-12-08T03:00:18.948Z,0.23
2022-12-08T03:03:36.522Z,0.23
2022-12-08T03:06:45.360Z,0.10
2022-12-08T03:09:53.096Z,0.21
2022-12-08T03:13:16.439Z,0.16
2022-12-08T03:16:24.702Z,0.16
2022-12-08T03:19:36.132Z,0.27
2022-12-08T03:22:41.083Z,0.31
2022-12-08T03:25:57.468Z,0.32
2022-12-08T03:29:00.380Z,0.31
2022-12-08T03:32:16.726Z,0.23
2022-12-08T03:35:26.350Z,0.11
2022-12-08T03:38:37.969Z,0.24
2022-12-08T03:41:40.730Z,0.23
2022-12-08T03:44:43.083Z,0.21
2022-12-08T03:47:45.795Z,0.24
2022-12-08T03:50:48.172Z,0.16
2022-12-08T03:53:51.227Z,0.19
2022-12-08T03:56:53.636Z,0.18
2022-12-08T03:59:56.290Z,0.17
2022-12-08T04:02:59.184Z,0.18
2022-12-08T04:06:01.998Z,0.12
2022-12-08T04:09:05.250Z,0.18
2022-12-08T04:12:09.124Z,0.15
2022-12-08T04:15:11.637Z,0.17
2022-12-08T04:18:15.135Z,0.17
2022-12-08T04:21:17.841Z,0.23
2022-12-08T04:24:20.603Z,0.15
2022-12-08T04:27:23.003Z,0.17
2022-12-08T04:30:25.819Z,0.21
2022-12-08T04:33:28.754Z,0.16
2022-12-08T04:36:31.464Z,0.08
2022-12-08T04:39:33.812Z,0.13
2022-12-08T04:42:36.686Z,0.00
2022-12-08T04:45:42.920Z,0.05
2022-12-08T04:48:45.982Z,0.06
2022-12-08T04:51:48.480Z,0.00
2022-12-08T04:54:51.247Z,0.12
2022-12-08T04:57:53.590Z,0.07
2022-12-08T05:00:56.365Z,0.06
2022-12-08T05:03:58.883Z,0.12
2022-12-08T05:07:01.647Z,0.07
2022-12-08T05:10:04.846Z,0.14
2022-12-08T05:13:07.885Z,0.10
2022-12-08T05:16:13.237Z,0.09
2022-12-08T05:19:16.686Z,0.08
2022-12-08T05:22:19.088Z,0.04
2022-12-08T05:25:21.751Z,0.09
2022-12-08T05:28:41.809Z,0.09
2022-12-08T05:31:45.013Z,0.11
2022-12-08T05:34:47.519Z,0.12
2022-12-08T05:37:50.282Z,0.12
2022-12-08T05:40:52.657Z,0.07
2022-12-08T05:43:55.423Z,0.11
2022-12-08T05:46:58.227Z,0.15
2022-12-08T05:50:01.235Z,0.26
2022-12-08T05:53:03.888Z,0.30
2022-12-08T05:56:06.861Z,0.34
2022-12-08T05:59:09.344Z,0.31
2022-12-08T06:02:12.203Z,0.32
2022-12-08T06:05:14.821Z,0.41
2022-12-08T06:08:17.934Z,0.40
2022-12-08T06:11:25.429Z,0.27
2022-12-08T06:14:28.733Z,0.35
2022-12-08T06:17:31.126Z,0.39
2022-12-08T06:20:34.595Z,0.46
2022-12-08T06:23:37.679Z,0.44
2022-12-08T06:26:41.669Z,0.43
2022-12-08T06:29:44.675Z,0.41
2022-12-08T06:32:47.401Z,0.41
2022-12-08T06:35:49.857Z,0.35
2022-12-08T06:38:52.895Z,0.38
2022-12-08T06:42:13.598Z,0.39
2022-12-08T06:45:17.607Z,0.33
2022-12-08T06:48:20.302Z,0.52
2022-12-08T06:51:23.693Z,0.44
2022-12-08T06:54:26.148Z,0.37
2022-12-08T06:57:29.024Z,0.41
2022-12-08T07:00:31.393Z,0.36
2022-12-08T07:03:34.217Z,0.42
2022-12-08T07:06:36.772Z,0.48
2022-12-08T07:09:39.516Z,0.44
2022-12-08T07:12:41.889Z,0.32
2022-12-08T07:15:44.662Z,0.35
2022-12-08T07:18:47.300Z,0.33
2022-12-08T07:21:50.226Z,0.37
2022-12-08T07:24:52.712Z,0.39
2022-12-08T07:27:55.690Z,0.34
2022-12-08T07:30:58.223Z,0.38
2022-12-08T07:34:01.060Z,0.39
2022-12-08T07:37:03.722Z,0.42
2022-12-08T07:40:08.063Z,0.34
2022-12-08T07:43:10.740Z,0.36
2022-12-08T07:46:19.281Z,0.29
2022-12-08T07:49:21.931Z,0.33
2022-12-08T07:52:24.824Z,0.39
2022-12-08T07:55:27.344Z,0.36
2022-12-08T07:58:30.057Z,0.50
2022-12-08T08:01:35.402Z,0.37
2022-12-08T08:04:38.327Z,0.40
2022-12-08T08:07:43.495Z,0.42
2022-12-08T08:10:47.176Z,0.56
2022-12-08T08:13:53.438Z,0.62
2022-12-08T08:16:56.541Z,0.68
2022-12-08T08:19:59.490Z,0.57
2022-12-08T08:23:02.391Z,0.59
2022-12-08T08:26:05.886Z,0.64
2022-12-08T08:29:08.745Z,0.52
2022-12-08T08:32:11.539Z,0.57
2022-12-08T08:35:14.260Z,0.65
2022-12-08T08:38:16.785Z,0.60
2022-12-08T08:41:19.722Z,0.58
2022-12-08T08:44:22.161Z,0.69
2022-12-08T08:47:24.960Z,0.77
2022-12-08T08:50:30.526Z,0.68
2022-12-08T08:53:37.526Z,0.73
2022-12-08T08:56:39.945Z,0.71
2022-12-08T08:59:42.739Z,0.75
2022-12-08T09:02:45.277Z,0.82
2022-12-08T09:05:48.564Z,0.88
2022-12-08T09:08:51.042Z,0.96
2022-12-08T09:11:55.474Z,1.04
2022-12-08T09:14:57.941Z,1.06
2022-12-08T09:18:00.900Z,1.00
2022-12-08T09:21:13.421Z,1.09
2022-12-08T09:24:16.790Z,0.92
2022-12-08T09:27:19.497Z,1.17
2022-12-08T09:30:22.345Z,1.14
2022-12-08T09:33:25.027Z,1.31
2022-12-08T09:36:27.920Z,1.20
2022-12-08T09:39:30.422Z,1.07
2022-12-08T09:42:39.148Z,1.18
2022-12-08T09:45:42.255Z,1.34
2022-12-08T09:48:58.894Z,1.31
2022-12-08T09:52:01.925Z,1.45
2022-12-08T09:55:12.949Z,1.33
2022-12-08T09:58:48.663Z,1.38
2022-12-08T10:01:52.967Z,1.35
2022-12-08T10:04:57.630Z,1.47
2022-12-08T10:08:08.960Z,1.51
2022-12-08T10:11:17.262Z,1.64
2022-12-08T10:14:36.549Z,1.73
2022-12-08T10:17:45.736Z,1.80
2022-12-08T10:20:50.522Z,2.10
2022-12-08T10:24:26.859Z,2.36
2022-12-08T10:27:30.042Z,2.57
2022-12-08T10:30:32.772Z,2.69
2022-12-08T10:33:35.523Z,2.60
2022-12-08T10:36:56.759Z,2.53
2022-12-08T10:40:09.749Z,2.53
2022-12-08T10:43:22.353Z,2.43
2022-12-08T10:46:27.554Z,2.50
2022-12-08T10:49:32.682Z,2.43
2022-12-08T10:52:39.673Z,2.53
2022-12-08T10:55:53.913Z,2.70
2022-12-08T10:59:15.137Z,2.73
2022-12-08T11:02:20.985Z,2.60
2022-12-08T11:05:28.047Z,2.46
2022-12-08T11:08:30.880Z,2.39
2022-12-08T11:11:49.972Z,2.46
2022-12-08T11:15:01.651Z,2.60
2022-12-08T11:18:10.747Z,2.83
2022-12-08T11:21:18.445Z,2.91
2022-12-08T11:24:30.212Z,2.95
2022-12-08T11:27:38.375Z,3.07
2022-12-08T11:30:48.530Z,2.97
2022-12-08T11:33:52.706Z,3.01
2022-12-08T11:36:56.289Z,2.89
2022-12-08T11:40:01.342Z,2.97
2022-12-08T11:43:26.867Z,3.02
2022-12-08T11:46:37.762Z,2.92
2022-12-08T11:49:42.742Z,2.93
2022-12-08T11:52:51.046Z,2.94
2022-12-08T11:55:58.814Z,2.91
2022-12-08T11:59:23.407Z,3.01
2022-12-08T12:02:32.602Z,2.93
2022-12-08T12:06:53.690Z,2.91
2022-12-08T12:10:14.184Z,3.05
2022-12-08T12:13:28.361Z,3.07
2022-12-08T12:16:50.828Z,3.04
2022-12-08T12:19:53.735Z,2.98
2022-12-08T12:23:19.114Z,3.05
2022-12-08T12:26:27.676Z,3.05
2022-12-08T12:29:34.406Z,2.99
2022-12-08T12:32:57.533Z,2.94
2022-12-08T12:36:04.650Z,2.99
2022-12-08T12:39:12.880Z,2.88
2022-12-08T12:42:45.948Z,3.03
2022-12-08T12:45:48.487Z,3.12
2022-12-08T12:48:52.412Z,3.10
2022-12-08T12:51:55.974Z,3.08
2022-12-08T12:54:58.756Z,2.95
2022-12-08T12:58:16.442Z,2.84
2022-12-08T13:01:22.282Z,3.03
2022-12-08T13:04:36.518Z,2.96
2022-12-08T13:07:59.254Z,2.89
2022-12-08T13:11:08.282Z,2.92
2022-12-08T13:14:35.459Z,2.97
2022-12-08T13:17:38.977Z,2.79
2022-12-08T13:20:45.964Z,2.67
2022-12-08T13:23:50.979Z,2.73
2022-12-08T13:27:05.980Z,2.73
2022-12-08T13:30:43.858Z,2.72
2022-12-08T13:33:47.435Z,2.72
2022-12-08T13:37:00.763Z,2.64
2022-12-08T13:40:15.025Z,2.51
2022-12-08T13:43:24.239Z,2.51
2022-12-08T13:51:23.722Z,2.64
2022-12-08T13:54:51.900Z,2.49
2022-12-08T13:57:32.810Z,2.42
2022-12-08T14:00:35.994Z,2.48
2022-12-08T14:07:19.879Z,2.42
2022-12-08T14:10:29.026Z,2.46
2022-12-08T14:13:32.488Z,2.41
2022-12-08T14:16:40.696Z,2.38
2022-12-08T14:19:46.253Z,2.33
2022-12-08T14:22:48.885Z,2.37
2022-12-08T14:25:51.723Z,2.37
2022-12-08T14:28:54.335Z,2.37
2022-12-08T14:31:58.121Z,2.35
2022-12-08T14:35:02.128Z,2.32
2022-12-08T14:38:16.628Z,2.28
2022-12-08T14:41:27.295Z,2.31
2022-12-08T14:44:32.493Z,2.16
2022-12-08T14:47:35.101Z,2.33
2022-12-08T14:50:41.097Z,2.32
2022-12-08T14:54:01.321Z,2.30
2022-12-08T14:57:04.515Z,2.20
2022-12-08T15:00:09.453Z,2.13
2022-12-08T15:03:13.769Z,2.05
2022-12-08T15:06:16.420Z,2.20
2022-12-08T15:09:46.264Z,2.05
2022-12-08T15:13:22.349Z,2.13
2022-12-08T15:16:39.581Z,2.24
2022-12-08T15:19:42.120Z,2.33
2022-12-08T15:22:45.058Z,2.29
2022-12-08T15:25:48.176Z,2.37
2022-12-08T15:28:51.083Z,2.34
2022-12-08T15:31:56.620Z,2.34
2022-12-08T15:34:59.540Z,2.37
2022-12-08T15:38:02.069Z,2.31
2022-12-08T15:41:08.066Z,2.40
2022-12-08T15:44:13.922Z,2.34
2022-12-08T15:47:19.223Z,2.30
2022-12-08T15:50:23.304Z,2.34
2022-12-08T15:53:26.509Z,2.37
2022-12-08T15:56:29.788Z,2.25
2022-12-08T15:59:32.646Z,2.27
2022-12-08T16:03:05.079Z,2.33
2022-12-08T16:06:50.841Z,2.36
2022-12-08T16:09:31.609Z,2.29
2022-12-08T16:16:21.637Z,2.27
2022-12-08T16:19:24.621Z,2.21
2022-12-08T16:26:20.262Z,2.22
2022-12-08T16:29:20.978Z,2.14
2022-12-08T16:32:24.196Z,2.23
2022-12-08T16:35:27.109Z,2.28
2022-12-08T16:38:30.398Z,2.30
2022-12-08T16:41:52.197Z,2.29
2022-12-08T16:44:55.240Z,2.35
2022-12-08T16:47:59.980Z,2.30
2022-12-08T16:51:04.827Z,2.38
2022-12-08T16:54:07.438Z,2.38
2022-12-08T16:57:12.801Z,2.37
2022-12-08T17:00:19.013Z,2.43
2022-12-08T17:03:22.362Z,2.42
2022-12-08T17:06:24.941Z,2.39
2022-12-08T17:09:28.845Z,2.39
2022-12-08T17:12:31.570Z,2.45
2022-12-08T17:15:34.854Z,2.42
2022-12-08T17:18:37.700Z,2.41
2022-12-08T17:21:41.174Z,2.39
2022-12-08T17:24:44.525Z,2.30
2022-12-08T17:27:47.541Z,2.46
2022-12-08T17:30:50.984Z,2.43
2022-12-08T17:33:54.328Z,2.49
2022-12-08T17:36:58.321Z,2.41
2022-12-08T17:40:01.409Z,2.41
2022-12-08T17:43:04.279Z,2.44
2022-12-08T17:46:08.595Z,2.54
2022-12-08T17:49:16.186Z,2.40
2022-12-08T17:52:19.956Z,2.40
2022-12-08T17:55:25.607Z,2.36
2022-12-08T17:58:32.099Z,2.38
2022-12-08T18:01:40.444Z,2.34
2022-12-08T18:04:44.209Z,2.30
2022-12-08T18:07:49.271Z,2.37
2022-12-08T18:10:54.118Z,2.31
2022-12-08T18:13:57.644Z,2.30
2022-12-08T18:17:02.036Z,2.29
2022-12-08T18:20:08.037Z,2.29
2022-12-08T18:23:11.899Z,2.26
2022-12-08T18:26:16.357Z,2.34
2022-12-08T18:29:20.712Z,2.34
2022-12-08T18:32:24.977Z,2.37
2022-12-08T18:35:29.457Z,2.27
2022-12-08T18:38:32.655Z,2.27
2022-12-08T18:41:35.883Z,2.23
2022-12-08T18:44:40.057Z,2.27
2022-12-08T18:47:43.589Z,2.19
2022-12-08T18:50:46.822Z,2.13
2022-12-08T19:05:23.916Z,2.10
2022-12-08T19:08:31.369Z,2.19
2022-12-08T19:11:34.849Z,2.11
2022-12-08T19:14:38.685Z,2.13
2022-12-08T19:17:45.124Z,1.97
2022-12-08T19:20:49.169Z,2.15
2022-12-08T19:23:56.679Z,2.19
2022-12-08T19:27:00.933Z,2.20
2022-12-08T19:30:05.559Z,2.07
2022-12-08T19:33:09.651Z,2.01
2022-12-08T19:36:21.773Z,2.14
2022-12-08T19:39:49.880Z,2.23
2022-12-08T19:43:17.316Z,2.16
2022-12-08T19:46:31.161Z,2.17
2022-12-08T19:49:37.935Z,2.07
2022-12-08T19:52:42.668Z,2.12
2022-12-08T19:56:41.836Z,2.23
2022-12-08T19:59:47.056Z,2.20
2022-12-08T20:02:54.618Z,2.27
2022-12-08T20:05:59.265Z,2.21
2022-12-08T20:09:05.068Z,2.09
2022-12-08T20:12:09.783Z,2.12
2022-12-08T20:15:16.624Z,2.07
2022-12-08T20:18:21.729Z,1.89
2022-12-08T20:21:25.742Z,1.95
2022-12-08T20:24:36.634Z,1.72
2022-12-08T20:27:55.819Z,1.79
2022-12-08T20:31:00.032Z,1.68
2022-12-08T20:34:04.241Z,1.67
2022-12-08T20:37:08.709Z,1.52
2022-12-08T20:40:12.580Z,1.54
2022-12-08T20:43:17.113Z,1.49
2022-12-08T20:46:25.827Z,1.47
2022-12-08T20:49:34.983Z,1.57
2022-12-08T20:52:39.903Z,1.31
2022-12-08T20:55:45.145Z,1.41
2022-12-08T20:58:50.368Z,1.50
2022-12-08T21:01:55.100Z,1.47
2022-12-08T21:04:58.386Z,1.44
2022-12-08T21:08:03.704Z,1.35
2022-12-08T21:11:08.828Z,1.40
2022-12-08T21:14:20.553Z,1.15
2022-12-08T21:17:28.576Z,1.14
2022-12-08T21:20:32.125Z,0.88
2022-12-08T21:26:54.820Z,0.92
2022-12-08T21:29:57.451Z,1.00
2022-12-08T21:33:01.381Z,1.14
2022-12-08T21:36:09.795Z,1.04
2022-12-08T21:39:13.343Z,0.98
2022-12-08T21:42:34.822Z,1.02
2022-12-08T21:45:40.655Z,0.96
2022-12-08T21:48:43.277Z,0.89
2022-12-08T21:51:47.509Z,0.97
2022-12-08T21:54:50.325Z,0.85
2022-12-08T21:57:53.438Z,0.71
2022-12-08T22:01:09.458Z,0.67
2022-12-08T22:05:21.016Z,0.50
2022-12-08T22:14:08.353Z,0.36
2022-12-08T23:15:25.706Z,-0.02
2022-12-08T23:34:04.533Z,-0.49
2022-12-08T23:37:36.199Z,-0.20
2022-12-08T23:40:40.131Z,-0.44
2022-12-08T23:43:51.332Z,-0.53
2022-12-08T23:47:30.842Z,-0.43
2022-12-08T23:54:55.111Z,-0.27
2022-12-08T23:58:08.277Z,-0.57
